Список аэропортов
Фактическая погода:

26 апреля, 11:50
Температура: +10°C (+7.6*)
Ветер: западный 5 м/с
Давление: *764 мм
неб. облачность
690 м
разорв. обл.
2100 м
Время (МСК)Темп. СВетерВлажностьДавлениеОблачностьОсадки
09:00+10СЗ, 5 м/с69%1017 гПаоблачнодождь
10:00+10СЗ, 5 м/с73%1018 гПаоблачнодождь
11:00+10З, 5 м/с70%1018 гПаоблачносл. дождь
12:00+11З, 6 м/с58%1019 гПаоблачно
13:00+12З, 6 м/с54%1019 гПаоблачно
14:00+13З, 6 м/с51%1019 гПаоблачно
15:00+13З, 6 м/с52%1019 гПаоблачно
16:00+13З, 6 м/с51%1018 гПаоблачно
17:00+14З, 7 м/с49%1018 гПас прояснениями
18:00+14З, 6 м/с48%1018 гПас прояснениями
19:00+14З, 5 м/с48%1018 гПас прояснениями
20:00+13З, 5 м/с48%1018 гПаоблачно
21:00+13З, 3 м/с47%1019 гПаоблачно
22:00+12ЮЗ, 2 м/с53%1019 гПаоблачно
23:00+12ЮЗ, 1 м/с57%1020 гПаоблачно
27 апреля
00:00+11З, 1 м/с61%1020 гПаоблачно
01:00+10С, 1 м/с63%1020 гПаоблачно
02:00+8В, 1 м/с66%1020 гПамалооблачно
03:00+7В, 1 м/с73%1020 гПаясно
04:00+6В, 1 м/с80%1020 гПас прояснениями
05:00+6В, 2 м/с82%1019 гПамалооблачно
06:00+5В, 2 м/с84%1018 гПаясно
07:00+4В, 2 м/с85%1018 гПаясно
08:00+5В, 2 м/с83%1018 гПаясно
09:00+8В, 4 м/с73%1016 гПаясно
10:00+12В, 5 м/с56%1015 гПаоблачно
11:00+13В, 7 м/с50%1014 гПас прояснениями
12:00+15В, 6 м/с47%1013 гПас прояснениями
13:00+17В, 5 м/с48%1013 гПаоблачно
14:00+18В, 4 м/с46%1012 гПаоблачно
15:00+20ЮВ, 3 м/с44%1011 гПаясно
16:00+21ЮВ, 2 м/с42%1011 гПаясно
17:00+22В, 1 м/с40%1010 гПаясно
18:00+22В, 1 м/с38%1010 гПаясно
19:00+23В, 2 м/с38%1010 гПаясно
20:00+22В, 2 м/с41%1010 гПаясно
21:00+20В, 2 м/с50%1010 гПаясно
22:00+18В, 2 м/с59%1010 гПаясно
23:00+16ЮВ, 2 м/с66%1010 гПаясно
28 апреля
00:00+15ЮВ, 1 м/с73%1011 гПаясно
01:00+14Ю, 2 м/с78%1011 гПаясно
02:00+13Ю, 2 м/с83%1011 гПаясно
03:00+14ЮЗ, 4 м/с71%1012 гПаоблачно
04:00+13ЮЗ, 2 м/с75%1012 гПаоблачно
05:00+12ЮЗ, 3 м/с79%1013 гПаоблачно
06:00+12ЮЗ, 3 м/с76%1013 гПаоблачно
07:00+12ЮЗ, 3 м/с76%1013 гПаоблачно
08:00+12З, 3 м/с74%1014 гПаоблачно
09:00+14З, 3 м/с68%1014 гПас прояснениями